TAF KVGT
KVGT 090522Z 0906/1006 22006KT P6SM FEW200 FM091300 19012G21KT P6SM VCSH FEW050 BKN080 FM091700 23018G27KT P6SM -SHRA SCT030 BKN050 OVC080 PROB30 0919/0923 6SM -RA SCT020 BKN040 FM100200 34010KT P6SM VCSH SCT050 BKN080=
METAR KVGT
WC KVGT
WS KVGT
WV KVGT